Time;durP1;ratioP1;P1;durP2;ratioP2;P2;SDS_P1;SDS_P2;PMS_P1;PMS_P2;Temp;Humidity;BMP_temperature;BMP_pressure;BME280_temperature;BME280_humidity;BME280_pressure;Samples;Min_cycle;Max_cycle;Signal;HPM_P1;HPM_P2
2022/09/19 00:00:18;;;;;;;9.95;1.60;;;21.00;78.60;;;;;;1885405;75;21053;-61
2022/09/19 00:02:47;;;;;;;7.17;1.50;;;21.00;78.80;;;;;;1885325;76;21040;-61
2022/09/19 00:05:16;;;;;;;3.87;1.20;;;21.00;78.80;;;;;;1885383;75;21039;-61
2022/09/19 00:07:48;;;;;;;12.78;1.98;;;21.00;78.50;;;;;;1889031;74;21118;-61
2022/09/19 00:10:17;;;;;;;10.00;2.77;;;21.00;78.80;;;;;;1891545;75;21048;-61
2022/09/19 00:12:47;;;;;;;7.35;1.75;;;21.00;78.80;;;;;;1891571;75;21107;-61
2022/09/19 00:15:16;;;;;;;6.80;1.50;;;20.90;78.60;;;;;;1891648;74;21098;-61
2022/09/19 00:17:46;;;;;;;7.60;1.77;;;20.90;78.50;;;;;;1891551;76;21028;-61
2022/09/19 00:20:15;;;;;;;6.40;1.37;;;20.90;78.40;;;;;;1891531;75;21044;-61
2022/09/19 00:24:45;;;;;;;7.30;1.35;;;20.90;78.20;;;;;;1891633;76;21176;-61
2022/09/19 00:25:16;;;;;;;3.87;1.10;;;20.90;78.10;;;;;;1886850;75;21032;-61
2022/09/19 00:27:45;;;;;;;4.80;1.05;;;20.90;77.90;;;;;;1891497;76;21024;-61
2022/09/19 00:30:14;;;;;;;9.48;1.70;;;20.90;77.80;;;;;;1891511;76;21004;-61
2022/09/19 00:32:44;;;;;;;6.72;1.50;;;20.90;77.80;;;;;;1891616;75;21055;-61
2022/09/19 00:35:14;;;;;;;6.25;1.50;;;20.80;77.80;;;;;;1891532;75;21097;-61
2022/09/19 00:37:43;;;;;;;2.83;1.25;;;20.90;77.80;;;;;;1891588;75;21040;-61
2022/09/19 00:40:12;;;;;;;11.53;1.77;;;20.80;77.60;;;;;;1891546;75;21047;-61
2022/09/19 00:42:42;;;;;;;5.42;1.20;;;20.80;77.70;;;;;;1891488;76;21032;-61
2022/09/19 00:45:15;;;;;;;4.95;1.10;;;20.70;77.60;;;;;;1891609;75;21169;-61
2022/09/19 00:47:49;;;;;;;5.58;2.02;;;20.70;77.80;;;;;;1891538;76;21028;-61
2022/09/19 00:50:27;;;;;;;5.40;1.75;;;20.70;78.30;;;;;;1891699;75;21094;-61
2022/09/19 00:53:02;;;;;;;5.65;1.50;;;20.60;78.60;;;;;;1891674;75;21004;-61
2022/09/19 00:55:31;;;;;;;;;;;20.60;79.00;;;;;;1894586;76;21161;-61
2022/09/19 00:58:21;;;;;;;6.62;1.50;;;20.50;80.00;;;;;;1891760;76;20327;-61
2022/09/19 01:00:51;;;;;;;10.40;2.30;;;20.50;79.80;;;;;;1891715;74;21778;-62
2022/09/19 01:03:24;;;;;;;9.45;1.70;;;20.40;79.80;;;;;;1891748;76;21126;-62
2022/09/19 01:05:56;;;;;;;16.30;2.60;;;20.30;80.00;;;;;;1891462;75;21146;-62
2022/09/19 01:08:36;;;;;;;7.28;2.05;;;20.30;80.40;;;;;;1892371;75;21063;-62
2022/09/19 01:11:18;;;;;;;10.38;2.15;;;20.20;80.60;;;;;;1892616;76;21055;-62
2022/09/19 01:13:59;;;;;;;11.68;1.98;;;20.10;80.80;;;;;;1904670;74;21030;-62
2022/09/19 01:16:45;;;;;;;6.70;2.00;;;20.10;81.10;;;;;;1904904;74;21109;-62
2022/09/19 01:19:29;;;;;;;4.72;1.40;;;20.10;80.80;;;;;;1904506;73;21051;-62
2022/09/19 01:22:25;;;;;;;4.53;1.40;;;20.00;81.10;;;;;;1904052;75;21026;-62
2022/09/19 01:25:00;;;;;;;5.87;1.70;;;20.00;80.80;;;;;;1904288;73;21051;-61
2022/09/19 01:27:49;;;;;;;6.70;1.60;;;20.00;80.80;;;;;;1905018;74;21184;-61
2022/09/19 01:30:19;;;;;;;6.70;1.37;;;19.90;80.60;;;;;;1904858;75;21046;-61
2022/09/19 01:33:03;;;;;;;4.87;1.22;;;19.90;80.60;;;;;;1904756;74;21033;-61
2022/09/19 01:35:35;;;;;;;3.67;1.40;;;19.90;80.70;;;;;;1904636;73;21518;-61
2022/09/19 01:38:10;;;;;;;5.80;1.30;;;19.90;80.50;;;;;;1904812;75;21042;-61
2022/09/19 01:40:39;;;;;;;6.58;3.40;;;19.90;80.20;;;;;;1904918;74;21133;-61
2022/09/19 01:43:15;;;;;;;6.37;1.20;;;19.90;79.00;;;;;;1904808;75;21034;-61
2022/09/19 01:45:44;;;;;;;6.42;0.88;;;19.90;78.90;;;;;;1904999;75;21163;-61
2022/09/19 01:48:37;;;;;;;8.45;3.08;;;19.90;79.10;;;;;;1904917;74;21022;-61
2022/09/19 01:51:25;;;;;;;6.53;2.42;;;19.90;78.50;;;;;;1904268;75;21093;-62
2022/09/19 01:54:00;;;;;;;6.60;1.75;;;19.90;79.40;;;;;;1904783;74;21090;-61
2022/09/19 01:56:33;;;;;;;7.12;1.95;;;20.00;79.00;;;;;;1904416;74;21159;-61
2022/09/19 01:59:25;;;;;;;4.65;1.30;;;20.00;78.70;;;;;;1904240;74;21159;-61
2022/09/19 02:02:23;;;;;;;7.50;1.47;;;19.90;78.60;;;;;;1904866;75;21107;-61
2022/09/19 02:05:05;;;;;;;6.17;1.52;;;19.90;78.70;;;;;;1904895;75;21129;-62
2022/09/19 02:07:47;;;;;;;7.47;1.75;;;19.90;78.80;;;;;;1904861;74;21059;-61
2022/09/19 02:10:22;;;;;;;5.28;1.70;;;19.80;79.00;;;;;;1904937;75;21054;-62
2022/09/19 02:12:52;;;;;;;;;;;19.80;79.60;;;;;;1907621;75;21043;-62
2022/09/19 02:15:31;;;;;;;8.55;2.37;;;19.90;80.30;;;;;;1887864;75;20133;-62
2022/09/19 02:18:04;;;;;;;9.90;2.95;;;19.80;79.80;;;;;;1904734;74;21116;-62
2022/09/19 02:20:35;;;;;;;23.02;9.58;;;19.80;79.60;;;;;;1904513;74;21007;-62
2022/09/19 02:23:08;;;;;;;12.07;4.25;;;19.80;79.20;;;;;;1904809;74;21081;-62
2022/09/19 02:25:38;;;;;;;8.68;2.45;;;19.70;79.70;;;;;;1904794;75;21109;-62
2022/09/19 02:28:16;;;;;;;3.85;1.90;;;19.70;79.90;;;;;;1904862;75;21019;-61
2022/09/19 02:30:47;;;;;;;5.55;1.15;;;19.60;79.70;;;;;;1904888;75;21126;-62
2022/09/19 02:33:18;;;;;;;2.60;1.00;;;19.60;79.80;;;;;;1904872;75;21026;-61
2022/09/19 02:35:51;;;;;;;4.87;1.17;;;19.50;80.30;;;;;;1904863;75;21100;-61
2022/09/19 02:38:33;;;;;;;3.42;1.17;;;19.50;79.50;;;;;;1904861;75;21430;-61
2022/09/19 02:41:20;;;;;;;6.33;1.27;;;19.50;79.80;;;;;;1881486;75;21466;-61
2022/09/19 02:43:57;;;;;;;4.40;1.60;;;19.40;80.30;;;;;;1905055;74;21106;-61
2022/09/19 02:46:47;;;;;;;6.12;1.10;;;19.50;80.40;;;;;;1904783;75;21023;-61
2022/09/19 02:49:22;;;;;;;5.87;2.25;;;19.50;80.40;;;;;;1903797;74;21019;-61
2022/09/19 02:51:54;;;;;;;5.47;1.77;;;19.50;80.60;;;;;;1903271;74;21575;-61
2022/09/19 02:54:26;;;;;;;5.40;1.87;;;19.50;81.10;;;;;;1904854;74;21027;-60
2022/09/19 02:56:58;;;;;;;7.95;4.40;;;19.60;81.60;;;;;;1903867;73;21035;-60
2022/09/19 02:59:30;;;;;;;7.03;1.92;;;19.60;81.80;;;;;;1904758;75;21054;-60
2022/09/19 03:02:03;;;;;;;5.45;1.90;;;19.60;82.10;;;;;;1904518;74;21164;-60
2022/09/19 03:04:41;;;;;;;5.33;1.32;;;19.60;82.40;;;;;;1904831;74;21027;-60
2022/09/19 03:07:25;;;;;;;7.00;1.70;;;19.60;82.10;;;;;;1904676;75;21509;-60
2022/09/19 03:10:14;;;;;;;3.67;1.55;;;19.60;82.50;;;;;;1900871;74;21109;-60
2022/09/19 03:13:03;;;;;;;5.97;2.87;;;19.60;83.00;;;;;;1898960;75;21128;-60
2022/09/19 03:15:40;;;;;;;6.03;1.45;;;19.60;83.30;;;;;;1901023;75;21035;-60
2022/09/19 03:18:15;;;;;;;6.25;1.52;;;19.60;83.10;;;;;;1900922;74;21494;-60
2022/09/19 03:20:50;;;;;;;5.08;1.92;;;19.60;83.50;;;;;;1900959;74;22145;-60
2022/09/19 03:23:23;;;;;;;5.55;1.32;;;19.60;83.80;;;;;;1901150;74;21122;-60
2022/09/19 03:25:53;;;;;;;8.05;1.55;;;19.60;84.10;;;;;;1901205;74;21016;-60
2022/09/19 03:28:23;;;;;;;5.95;1.85;;;19.60;84.10;;;;;;1901032;75;21032;-60
2022/09/19 03:30:59;;;;;;;9.58;2.35;;;19.60;84.20;;;;;;1901057;74;21031;-60
2022/09/19 03:33:25;;;;;;;6.92;1.98;;;19.60;84.40;;;;;;1900559;74;21037;-60
2022/09/19 03:35:57;;;;;;;6.58;1.82;;;19.60;84.80;;;;;;1901021;74;21111;-60
2022/09/19 03:38:26;;;;;;;6.78;1.95;;;19.60;85.10;;;;;;1900981;74;21036;-60
2022/09/19 03:40:55;;;;;;;5.37;1.95;;;19.60;85.40;;;;;;1900971;75;21035;-60
2022/09/19 03:43:28;;;;;;;3.75;1.70;;;19.60;85.50;;;;;;1900999;74;21027;-60
2022/09/19 03:45:57;;;;;;;4.92;2.02;;;19.60;85.50;;;;;;1900586;74;21028;-60
2022/09/19 03:48:27;;;;;;;2.42;1.42;;;19.60;85.60;;;;;;1901032;74;21035;-60
2022/09/19 03:50:57;;;;;;;4.58;1.70;;;19.60;85.80;;;;;;1900913;74;21027;-60
2022/09/19 03:53:27;;;;;;;3.87;1.70;;;19.60;85.90;;;;;;1900909;75;21027;-60
2022/09/19 03:55:56;;;;;;;6.78;1.90;;;19.60;86.00;;;;;;1900841;74;21097;-60
2022/09/19 03:58:25;;;;;;;5.17;2.05;;;19.60;86.00;;;;;;1900970;75;21411;-60
2022/09/19 04:00:55;;;;;;;7.78;1.50;;;19.60;86.10;;;;;;1900917;74;21023;-60
2022/09/19 04:03:25;;;;;;;2.65;1.25;;;19.70;86.00;;;;;;1900884;74;21028;-60
2022/09/19 04:05:54;;;;;;;4.80;1.45;;;19.70;85.90;;;;;;1900816;74;21032;-60
2022/09/19 04:08:24;;;;;;;5.90;1.67;;;19.70;85.90;;;;;;1900821;74;21486;-60
2022/09/19 04:10:54;;;;;;;6.80;2.42;;;19.70;85.90;;;;;;1904735;73;21064;-60
2022/09/19 04:13:24;;;;;;;7.50;2.20;;;19.70;85.90;;;;;;1904774;74;21117;-60
2022/09/19 04:15:55;;;;;;;7.85;3.58;;;19.70;86.00;;;;;;1903751;75;21031;-60
2022/09/19 04:18:25;;;;;;;4.80;2.25;;;19.70;85.90;;;;;;1873663;75;21129;-60
2022/09/19 04:20:56;;;;;;;6.85;2.20;;;19.80;85.90;;;;;;1888793;75;21082;-60
2022/09/19 04:23:30;;;;;;;6.72;3.10;;;19.80;86.00;;;;;;1885332;75;21090;-60
2022/09/19 04:26:02;;;;;;;5.25;2.15;;;19.80;85.80;;;;;;1885219;76;21043;-60
2022/09/19 04:28:38;;;;;;;12.40;6.75;;;19.80;85.70;;;;;;1888502;75;21024;-60
2022/09/19 04:31:12;;;;;;;5.95;3.22;;;19.80;85.80;;;;;;1888616;75;21044;-61
2022/09/19 04:33:41;;;;;;;;;;;19.80;85.90;;;;;;1891452;76;21103;-60
2022/09/19 04:36:10;;;;;;;8.90;2.30;;;19.80;86.00;;;;;;1888810;76;20137;-60
2022/09/19 04:38:39;;;;;;;6.65;5.08;;;19.80;85.70;;;;;;1888686;75;21020;-61
2022/09/19 04:41:20;;;;;;;3.98;1.52;;;19.80;85.50;;;;;;1887510;75;21102;-61
2022/09/19 04:43:50;;;;;;;3.33;1.52;;;19.70;85.50;;;;;;1888764;75;21119;-60
2022/09/19 04:46:24;;;;;;;3.17;1.92;;;19.70;86.00;;;;;;1886999;76;21055;-61
2022/09/19 04:48:56;;;;;;;2.75;1.40;;;19.70;86.20;;;;;;1887981;75;21192;-61
2022/09/19 04:51:31;;;;;;;3.67;1.80;;;19.70;86.20;;;;;;1887852;76;21076;-61
2022/09/19 04:54:01;;;;;;;4.58;1.17;;;19.80;86.20;;;;;;1888918;75;21146;-61
2022/09/19 04:56:30;;;;;;;3.83;1.57;;;19.80;85.70;;;;;;1888745;75;21143;-61
2022/09/19 04:59:00;;;;;;;6.72;1.10;;;19.80;85.60;;;;;;1888704;75;21036;-61
2022/09/19 05:01:35;;;;;;;4.12;2.52;;;19.80;85.60;;;;;;1888720;75;21032;-61
2022/09/19 05:04:02;;;;;;;5.00;1.87;;;19.70;85.40;;;;;;1887969;76;21102;-61
2022/09/19 05:06:32;;;;;;;2.27;1.30;;;19.70;85.80;;;;;;1888873;75;21145;-61
2022/09/19 05:09:03;;;;;;;6.33;1.40;;;19.70;86.00;;;;;;1888633;74;21032;-61
2022/09/19 05:11:40;;;;;;;8.05;1.77;;;19.80;86.00;;;;;;1889907;75;21072;-61
2022/09/19 05:14:09;;;;;;;6.65;1.57;;;19.80;85.80;;;;;;1891307;75;21084;-61
2022/09/19 05:16:40;;;;;;;4.92;1.98;;;19.90;86.00;;;;;;1890557;75;21095;-61
2022/09/19 05:19:10;;;;;;;6.42;2.37;;;20.00;85.80;;;;;;1891477;74;21028;-61
2022/09/19 05:21:40;;;;;;;5.65;1.30;;;20.00;85.80;;;;;;1891337;75;21044;-61
2022/09/19 05:24:10;;;;;;;1.72;0.95;;;20.10;85.70;;;;;;1891285;74;21114;-61
2022/09/19 05:26:40;;;;;;;5.25;1.37;;;20.10;85.30;;;;;;1891419;75;21094;-61
2022/09/19 05:29:13;;;;;;;3.80;1.80;;;20.10;85.10;;;;;;1890547;76;21031;-61
2022/09/19 05:31:45;;;;;;;6.97;4.45;;;20.10;85.30;;;;;;1888286;75;21068;-61
2022/09/19 05:34:27;;;;;;;5.47;3.90;;;20.10;85.40;;;;;;1888446;74;21072;-61
2022/09/19 05:37:07;;;;;;;6.15;2.98;;;20.10;85.40;;;;;;1891472;76;21528;-61
2022/09/19 05:39:55;;;;;;;4.72;2.75;;;20.10;85.50;;;;;;1940466;73;21078;-60
2022/09/19 05:42:32;;;;;;;6.87;3.65;;;20.10;85.60;;;;;;1936749;73;21053;-62
2022/09/19 05:45:04;;;;;;;4.70;1.98;;;20.20;85.50;;;;;;1940070;74;21147;-61
2022/09/19 05:47:33;;;;;;;3.35;1.52;;;20.20;85.50;;;;;;1940496;73;21404;-61
2022/09/19 05:50:03;;;;;;;4.62;1.05;;;20.30;85.40;;;;;;1940324;73;21099;-61
2022/09/19 05:55:20;;;;;;;1.80;0.90;;;20.30;85.10;;;;;;1940375;74;21029;-61
2022/09/19 05:58:06;;;;;;;3.40;1.20;;;20.30;85.20;;;;;;1939813;74;21050;-61
2022/09/19 06:00:37;;;;;;;1.87;0.80;;;20.40;85.10;;;;;;1940333;73;21021;-61
2022/09/19 06:03:09;;;;;;;3.85;1.07;;;20.40;84.80;;;;;;1940234;73;21021;-61
2022/09/19 06:05:43;;;;;;;5.40;1.95;;;20.50;85.30;;;;;;1939705;73;22008;-61
2022/09/19 06:08:13;;;;;;;2.17;0.80;;;20.60;84.20;;;;;;1940287;73;21456;-61
2022/09/19 06:10:45;;;;;;;5.47;2.02;;;20.60;83.90;;;;;;1940345;74;21079;-61
2022/09/19 06:13:19;;;;;;;3.15;1.20;;;20.60;83.90;;;;;;1940359;73;21079;-62
2022/09/19 06:15:49;;;;;;;6.20;1.40;;;20.70;83.70;;;;;;1939887;73;21009;-62
2022/09/19 06:18:20;;;;;;;3.58;1.40;;;20.70;83.50;;;;;;1935572;74;21464;-61
2022/09/19 06:20:53;;;;;;;1.37;0.78;;;20.70;82.90;;;;;;1939296;73;21045;-62
2022/09/19 06:23:33;;;;;;;3.05;0.88;;;20.80;82.70;;;;;;1938981;73;21100;-61
2022/09/19 06:26:02;;;;;;;4.22;1.20;;;20.80;81.90;;;;;;1940344;73;21017;-62
2022/09/19 06:28:33;;;;;;;4.40;1.00;;;20.80;82.00;;;;;;1940448;73;21033;-62
2022/09/19 06:31:08;;;;;;;5.33;1.22;;;20.80;80.80;;;;;;1940159;74;21066;-61
2022/09/19 06:33:40;;;;;;;1.90;0.90;;;20.80;80.30;;;;;;1937854;73;21054;-61
2022/09/19 06:36:11;;;;;;;2.25;0.93;;;20.90;80.40;;;;;;1940310;73;21062;-61
2022/09/19 06:38:42;;;;;;;3.98;1.02;;;21.00;79.00;;;;;;1940196;73;21045;-61
2022/09/19 06:41:22;;;;;;;2.70;0.85;;;21.00;79.00;;;;;;1937270;74;21065;-61
2022/09/19 06:44:09;;;;;;;6.65;1.37;;;21.10;78.00;;;;;;1940215;74;21583;-62
2022/09/19 06:46:55;;;;;;;2.72;0.65;;;21.20;77.50;;;;;;1868917;77;21053;-62
2022/09/19 06:49:33;;;;;;;2.08;0.80;;;21.30;76.50;;;;;;1885256;73;21037;-62
2022/09/19 06:52:07;;;;;;;3.33;1.00;;;21.30;75.20;;;;;;1937155;73;21062;-62
2022/09/19 06:54:36;;;;;;;2.60;1.17;;;21.30;75.00;;;;;;1940383;74;21075;-62
2022/09/19 06:57:07;;;;;;;2.65;0.98;;;21.20;73.10;;;;;;1940155;73;20981;-62
2022/09/19 06:59:36;;;;;;;1.02;0.55;;;21.20;73.00;;;;;;1940338;73;21024;-62
2022/09/19 07:02:06;;;;;;;4.12;0.85;;;21.10;71.80;;;;;;1940190;73;21130;-62
2022/09/19 07:04:36;;;;;;;1.42;0.50;;;21.10;72.10;;;;;;1940276;74;20991;-62
2022/09/19 07:07:10;;;;;;;2.45;0.60;;;21.00;69.60;;;;;;1938371;74;21104;-62
2022/09/19 07:09:41;;;;;;;2.37;0.75;;;20.90;69.40;;;;;;1938282;73;21073;-62
2022/09/19 07:12:11;;;;;;;0.68;0.40;;;20.90;69.50;;;;;;1940235;73;21017;-62
2022/09/19 07:14:41;;;;;;;4.53;0.90;;;20.80;69.40;;;;;;1940329;73;21095;-62
2022/09/19 07:17:15;;;;;;;5.53;1.20;;;20.80;69.80;;;;;;1940281;74;21021;-62
2022/09/19 07:19:42;;;;;;;2.17;0.80;;;20.90;68.80;;;;;;1939649;73;21036;-62
2022/09/19 07:22:16;;;;;;;3.47;0.68;;;20.90;69.70;;;;;;1932373;73;21062;-62
2022/09/19 07:24:50;;;;;;;3.27;0.55;;;21.00;68.40;;;;;;1937743;74;21175;-62
2022/09/19 07:27:24;;;;;;;4.03;0.68;;;21.00;68.00;;;;;;1938120;74;21054;-62
2022/09/19 07:29:53;;;;;;;1.55;0.37;;;21.00;68.40;;;;;;1940276;73;21009;-62
2022/09/19 07:32:23;;;;;;;4.60;0.75;;;21.10;67.50;;;;;;1940227;73;21031;-62
2022/09/19 07:34:52;;;;;;;2.45;0.78;;;21.10;67.40;;;;;;1940669;73;21177;-62
2022/09/19 07:37:21;;;;;;;4.17;1.15;;;21.20;67.90;;;;;;1940283;73;20993;-62
2022/09/19 07:39:52;;;;;;;2.00;0.70;;;21.30;68.00;;;;;;1935695;73;21078;-62
2022/09/19 07:42:35;;;;;;;1.98;0.93;;;21.40;68.00;;;;;;1924424;74;21029;-62
2022/09/19 07:45:25;;;;;;;3.15;0.88;;;21.40;67.00;;;;;;1932084;73;21102;-62
2022/09/19 07:48:02;;;;;;;1.87;1.10;;;21.40;67.10;;;;;;1931451;74;21040;-62
2022/09/19 07:50:39;;;;;;;2.37;1.10;;;21.40;66.90;;;;;;1931087;74;21033;-62
2022/09/19 07:53:26;;;;;;;0.75;0.50;;;21.50;66.80;;;;;;1933298;73;21109;-62
2022/09/19 07:55:54;;;;;;;1.35;0.82;;;21.50;67.40;;;;;;1932428;74;21133;-62
2022/09/19 07:58:25;;;;;;;2.15;0.60;;;21.60;67.60;;;;;;1933802;73;21093;-62
2022/09/19 08:01:04;;;;;;;2.52;0.70;;;21.70;66.80;;;;;;1933232;73;21164;-62
2022/09/19 08:03:53;;;;;;;1.92;0.60;;;21.80;66.70;;;;;;1933832;73;21075;-62
2022/09/19 08:06:24;;;;;;;3.40;0.90;;;21.80;65.50;;;;;;1932859;73;21033;-62
2022/09/19 08:08:54;;;;;;;3.12;0.72;;;21.90;65.10;;;;;;1912897;74;21006;-62
2022/09/19 08:11:42;;;;;;;1.65;0.75;;;21.90;64.40;;;;;;1933799;73;21550;-62
2022/09/19 08:14:11;;;;;;;1.55;0.60;;;22.00;64.40;;;;;;1933642;73;21041;-63
2022/09/19 08:16:41;;;;;;;2.77;0.53;;;22.00;63.10;;;;;;1933673;73;21013;-62
2022/09/19 08:19:11;;;;;;;1.60;0.50;;;22.00;63.10;;;;;;1933619;73;21033;-62
2022/09/19 08:21:41;;;;;;;2.00;0.35;;;22.00;62.10;;;;;;1933615;73;21009;-62
2022/09/19 08:24:10;;;;;;;0.85;0.45;;;22.00;60.70;;;;;;1933586;74;21091;-62
2022/09/19 08:26:41;;;;;;;2.00;0.60;;;22.00;59.80;;;;;;1933732;73;21134;-63
2022/09/19 08:29:12;;;;;;;0.68;0.33;;;22.10;61.00;;;;;;1933787;73;21444;-62
2022/09/19 08:31:43;;;;;;;1.20;0.47;;;22.10;59.50;;;;;;1932266;73;21032;-62
2022/09/19 08:34:13;;;;;;;5.37;0.85;;;22.10;59.80;;;;;;1933571;73;21091;-62
2022/09/19 08:36:43;;;;;;;0.90;0.40;;;22.00;59.60;;;;;;1933611;74;21005;-62
2022/09/19 08:39:13;;;;;;;2.90;0.50;;;22.00;59.70;;;;;;1933508;73;21037;-62
2022/09/19 08:41:48;;;;;;;1.07;0.70;;;22.00;60.50;;;;;;1939845;73;21119;-62
2022/09/19 08:44:41;;;;;;;2.15;0.62;;;22.00;60.90;;;;;;1933671;74;21025;-62
2022/09/19 08:47:17;;;;;;;3.02;0.93;;;22.10;61.00;;;;;;1940070;73;21020;-62
2022/09/19 08:49:50;;;;;;;3.33;0.65;;;22.20;60.90;;;;;;1940072;73;21021;-62
2022/09/19 08:52:31;;;;;;;4.35;1.57;;;22.20;59.60;;;;;;1940228;73;21077;-62
2022/09/19 08:55:03;;;;;;;6.47;0.95;;;22.20;60.40;;;;;;1940135;73;21119;-62
2022/09/19 08:57:39;;;;;;;1.85;0.60;;;22.30;60.70;;;;;;1938784;73;21070;-62
2022/09/19 09:00:18;;;;;;;0.85;0.62;;;22.30;60.20;;;;;;1939892;73;21104;-62
2022/09/19 09:02:57;;;;;;;1.30;0.50;;;22.30;60.60;;;;;;1940313;73;21429;-62
2022/09/19 09:05:29;;;;;;;2.15;0.45;;;22.30;60.20;;;;;;1940385;73;21067;-62
2022/09/19 09:08:07;;;;;;;3.10;0.50;;;22.30;60.10;;;;;;1938644;73;21017;-62
2022/09/19 09:10:46;;;;;;;3.15;0.60;;;22.40;59.50;;;;;;1937333;74;21069;-62
2022/09/19 09:13:33;;;;;;;1.27;0.40;;;22.40;59.60;;;;;;1940404;73;21091;-62
2022/09/19 09:16:13;;;;;;;1.47;0.33;;;22.50;60.50;;;;;;1940230;73;21088;-62
2022/09/19 09:19:10;;;;;;;1.02;0.40;;;22.60;60.40;;;;;;1939952;73;21483;-62
2022/09/19 09:21:49;;;;;;;0.50;0.40;;;22.70;59.80;;;;;;1940361;73;21025;-62
2022/09/19 09:24:24;;;;;;;0.88;0.37;;;22.80;58.70;;;;;;1939968;73;20990;-62
2022/09/19 09:26:59;;;;;;;2.90;0.60;;;22.80;59.10;;;;;;1937825;73;21128;-62
2022/09/19 09:29:40;;;;;;;0.70;0.47;;;22.80;58.70;;;;;;1940279;73;21091;-62
2022/09/19 09:32:15;;;;;;;1.95;0.60;;;22.80;58.20;;;;;;1938223;73;21503;-62
2022/09/19 09:34:58;;;;;;;2.35;0.50;;;22.80;59.60;;;;;;1938833;74;21077;-62
2022/09/19 09:37:45;;;;;;;1.75;0.50;;;22.80;60.10;;;;;;1937431;73;21095;-62
2022/09/19 09:41:44;;;;;;;1.15;0.50;;;22.90;59.80;;;;;;1936463;73;21487;-61
2022/09/19 09:42:53;;;;;;;3.02;0.80;;;23.00;60.70;;;;;;1920153;74;21021;-62
2022/09/19 09:45:27;;;;;;;3.90;0.60;;;23.10;60.00;;;;;;1878567;76;21003;-62
2022/09/19 09:48:25;;;;;;;2.75;0.70;;;23.10;60.60;;;;;;1898603;75;21175;-62
2022/09/19 09:51:20;;;;;;;1.05;0.60;;;23.20;60.60;;;;;;1884709;74;21332;-63
2022/09/19 09:53:58;;;;;;;4.33;1.15;;;23.20;59.10;;;;;;1884387;76;21108;-63
2022/09/19 09:56:46;;;;;;;1.70;0.88;;;23.10;58.40;;;;;;1883007;76;21089;-64
2022/09/19 10:05:49;;;;;;;1.87;0.55;;;23.10;58.60;;;;;;1884991;76;21046;-63
2022/09/19 10:08:59;;;;;;;1.57;0.72;;;23.20;58.60;;;;;;1884808;76;21492;-63
2022/09/19 10:11:27;;;;;;;;;;;23.30;58.30;;;;;;1887104;76;21096;-62
2022/09/19 10:14:02;;;;;;;0.60;0.50;;;23.30;57.50;;;;;;1884157;76;20113;-62
2022/09/19 10:16:33;;;;;;;1.87;0.55;;;23.40;58.20;;;;;;1884263;76;21046;-62
2022/09/19 10:19:15;;;;;;;2.10;0.80;;;23.50;57.90;;;;;;1884759;76;21078;-62
2022/09/19 10:21:45;;;;;;;1.87;0.60;;;23.50;57.10;;;;;;1894272;75;20996;-62
2022/09/19 10:24:54;;;;;;;4.83;0.90;;;23.50;56.10;;;;;;1894722;74;21078;-62
2022/09/19 10:27:37;;;;;;;2.00;0.70;;;23.50;56.50;;;;;;1894813;75;21094;-62
2022/09/19 10:30:28;;;;;;;2.25;0.70;;;23.40;56.50;;;;;;1902613;75;21113;-62
2022/09/19 10:33:00;;;;;;;1.52;0.50;;;23.50;56.90;;;;;;1904560;75;21047;-62
2022/09/19 10:35:43;;;;;;;7.17;0.80;;;23.60;56.50;;;;;;1903257;75;21498;-63
2022/09/19 10:38:18;;;;;;;2.10;0.50;;;23.60;56.10;;;;;;1904678;74;21117;-63
2022/09/19 10:40:58;;;;;;;1.65;0.60;;;23.60;55.90;;;;;;1907164;74;21475;-63
2022/09/19 10:43:47;;;;;;;1.25;0.50;;;23.60;55.10;;;;;;1915769;74;21080;-63
2022/09/19 10:46:23;;;;;;;1.40;0.65;;;23.50;54.40;;;;;;1915859;73;21136;-63
2022/09/19 10:48:58;;;;;;;2.05;0.75;;;23.40;55.00;;;;;;1915840;74;21220;-63
2022/09/19 10:51:30;;;;;;;3.20;0.72;;;23.40;55.70;;;;;;1916431;74;21024;-63
2022/09/19 10:54:01;;;;;;;3.12;0.57;;;23.50;55.20;;;;;;1915638;74;21110;-63
2022/09/19 10:56:33;;;;;;;1.65;0.50;;;23.50;55.30;;;;;;1915975;74;21321;-63
2022/09/19 10:59:06;;;;;;;3.50;0.85;;;23.60;54.90;;;;;;1915891;74;21236;-64
2022/09/19 11:01:39;;;;;;;2.17;0.62;;;23.70;54.20;;;;;;1916030;74;21061;-63
2022/09/19 11:04:25;;;;;;;1.47;0.40;;;23.90;54.40;;;;;;1915974;74;21024;-64
2022/09/19 11:07:02;;;;;;;3.60;0.65;;;23.90;54.20;;;;;;1916259;75;21514;-63
2022/09/19 11:09:37;;;;;;;1.85;0.55;;;23.90;53.20;;;;;;1915945;74;21154;-63
2022/09/19 11:12:16;;;;;;;0.78;0.33;;;23.90;52.70;;;;;;1916233;74;21151;-63
2022/09/19 11:14:55;;;;;;;3.25;0.30;;;23.90;53.30;;;;;;1916023;73;21040;-63
2022/09/19 11:17:57;;;;;;;3.45;0.57;;;23.80;52.50;;;;;;1915704;74;21560;-63
2022/09/19 11:20:38;;;;;;;1.67;0.50;;;23.80;52.90;;;;;;1915694;74;21023;-63
2022/09/19 11:23:44;;;;;;;2.85;0.72;;;23.90;52.80;;;;;;1915515;74;21072;-63
2022/09/19 11:26:32;;;;;;;2.33;0.30;;;24.00;53.10;;;;;;1915334;74;21001;-64
2022/09/19 11:29:25;;;;;;;5.10;0.70;;;24.00;52.50;;;;;;1915154;74;21112;-64
2022/09/19 11:32:06;;;;;;;0.85;0.42;;;24.00;51.90;;;;;;1914956;75;21020;-64
2022/09/19 11:34:46;;;;;;;3.30;0.70;;;24.00;51.40;;;;;;1915083;74;21122;-64
2022/09/19 11:37:21;;;;;;;;;;;24.10;51.00;;;;;;1919046;74;21024;-64
2022/09/19 11:40:24;;;;;;;0.88;0.40;;;24.10;50.50;;;;;;1916004;74;20107;-62
2022/09/19 11:42:56;;;;;;;4.67;0.60;;;24.10;51.00;;;;;;1916036;73;21068;-63
2022/09/19 11:45:28;;;;;;;1.00;0.40;;;24.20;50.50;;;;;;1874742;73;21016;-63
2022/09/19 11:48:21;;;;;;;4.25;0.35;;;24.30;50.30;;;;;;1915519;75;21467;-62
2022/09/19 11:50:59;;;;;;;1.65;0.30;;;24.30;49.10;;;;;;1915951;74;21040;-63
2022/09/19 11:53:45;;;;;;;1.30;0.35;;;24.30;49.60;;;;;;1915857;74;21027;-63
2022/09/19 11:56:24;;;;;;;1.02;0.40;;;24.30;48.40;;;;;;1895701;75;21045;-63
2022/09/19 11:59:02;;;;;;;1.82;0.82;;;24.40;48.30;;;;;;1915274;75;21040;-63
2022/09/19 12:02:02;;;;;;;0.90;0.50;;;24.40;48.70;;;;;;1915825;74;21459;-64
2022/09/19 12:04:36;;;;;;;2.08;0.80;;;24.40;48.80;;;;;;1916017;75;21013;-64
2022/09/19 12:07:18;;;;;;;1.92;0.30;;;24.30;47.50;;;;;;1916024;74;21501;-64
2022/09/19 12:09:55;;;;;;;1.75;0.25;;;24.30;47.70;;;;;;1915822;74;21102;-65
2022/09/19 12:12:27;;;;;;;0.85;0.50;;;24.30;47.70;;;;;;1916050;75;21098;-64
2022/09/19 12:15:06;;;;;;;0.68;0.50;;;24.30;48.10;;;;;;1915617;75;21040;-63
2022/09/19 12:17:42;;;;;;;3.20;0.50;;;24.30;48.00;;;;;;1912347;75;21443;-63
2022/09/19 12:20:26;;;;;;;0.68;0.25;;;24.30;48.30;;;;;;1915087;74;21068;-63
2022/09/19 12:24:52;;;;;;;;;;;24.40;48.40;;;;;;1918721;74;21078;-63
2022/09/19 12:25:33;;;;;;;3.30;0.65;;;24.40;47.30;;;;;;1915590;74;20106;-63
2022/09/19 12:28:10;;;;;;;0.40;0.40;;;24.30;47.70;;;;;;1915961;74;21572;-63
2022/09/19 12:30:43;;;;;;;5.67;0.70;;;24.30;47.60;;;;;;1915983;74;21400;-62
2022/09/19 12:33:40;;;;;;;0.40;0.30;;;24.20;47.70;;;;;;1915980;74;21506;-62
2022/09/19 12:36:30;;;;;;;2.02;0.50;;;24.20;48.20;;;;;;1916168;73;21118;-63
2022/09/19 12:39:04;;;;;;;0.50;0.35;;;24.20;47.20;;;;;;1915967;74;21032;-63
2022/09/19 12:41:54;;;;;;;0.20;0.20;;;24.20;47.60;;;;;;1913665;74;21110;-62
2022/09/19 12:44:35;;;;;;;1.32;0.50;;;24.20;46.80;;;;;;1915981;74;21419;-64
2022/09/19 12:47:24;;;;;;;1.27;0.50;;;24.10;47.00;;;;;;1915913;74;21106;-63
2022/09/19 12:50:15;;;;;;;0.68;0.47;;;24.10;47.20;;;;;;1916021;74;21076;-63
2022/09/19 12:52:48;;;;;;;2.92;0.72;;;24.00;47.10;;;;;;1916124;74;21016;-63
2022/09/19 12:55:28;;;;;;;1.12;0.50;;;24.00;47.20;;;;;;1912124;74;21049;-63
2022/09/19 12:58:16;;;;;;;4.90;1.20;;;24.00;47.20;;;;;;1915887;74;21032;-63
2022/09/19 13:00:45;;;;;;;1.75;0.85;;;24.00;47.80;;;;;;1916003;74;21000;-64
2022/09/19 13:03:23;;;;;;;2.83;0.47;;;24.10;47.60;;;;;;1915817;73;21012;-64
2022/09/19 13:05:55;;;;;;;1.62;0.47;;;24.20;46.90;;;;;;1915887;74;21091;-63
2022/09/19 13:08:36;;;;;;;3.40;0.30;;;24.30;46.90;;;;;;1915944;74;21012;-64
2022/09/19 13:11:13;;;;;;;2.50;0.50;;;24.30;46.40;;;;;;1915927;74;21060;-63
2022/09/19 13:13:53;;;;;;;0.90;0.30;;;24.30;45.60;;;;;;1915985;74;21087;-64
2022/09/19 13:16:28;;;;;;;2.58;0.85;;;24.30;45.40;;;;;;1915859;74;21044;-64
2022/09/19 13:24:41;;;;;;;2.47;0.72;;;24.30;45.30;;;;;;1915965;75;21040;-63
2022/09/19 13:27:09;;;;;;;;;;;24.20;45.00;;;;;;1908226;75;21529;-63
2022/09/19 13:29:43;;;;;;;1.00;0.70;;;24.10;44.50;;;;;;1915939;74;20357;-63
2022/09/19 13:32:34;;;;;;;6.42;0.50;;;24.10;45.80;;;;;;1915994;75;21079;-63
2022/09/19 13:35:11;;;;;;;0.30;0.30;;;24.00;45.40;;;;;;1915746;74;21056;-64
2022/09/19 13:37:45;;;;;;;1.07;0.42;;;24.00;44.80;;;;;;1916006;74;21016;-64
2022/09/19 13:40:19;;;;;;;;;;;23.90;44.90;;;;;;1918786;75;21024;-65
2022/09/19 13:43:11;;;;;;;1.40;0.57;;;23.90;44.10;;;;;;1915986;74;20415;-66
2022/09/19 13:46:02;;;;;;;4.17;1.12;;;23.90;45.10;;;;;;1915859;74;21057;-65
2022/09/19 13:48:52;;;;;;;1.10;0.60;;;23.90;44.70;;;;;;1916010;74;21463;-65